createdAt,value
2023-02-18T00:00:13.459Z,99018.13
2023-02-18T00:02:58.753Z,99014.13
2023-02-18T00:05:43.998Z,99010.16
2023-02-18T00:08:29.569Z,99009.38
2023-02-18T00:11:15.970Z,99010.16
2023-02-18T00:14:03.022Z,99001.06
2023-02-18T00:16:48.727Z,99008.59
2023-02-18T00:19:33.997Z,99008.59
2023-02-18T00:22:19.356Z,99018.13
2023-02-18T00:25:04.760Z,99008.16
2023-02-18T00:27:49.988Z,99007.38
2023-02-18T00:30:35.360Z,99010.16
2023-02-18T00:33:21.164Z,99003.41
2023-02-18T00:36:10.566Z,99012.16
2023-02-18T00:38:59.352Z,99012.56
2023-02-18T00:41:44.851Z,99021.66
2023-02-18T00:44:30.343Z,99017.34
2023-02-18T00:47:16.156Z,99025.66
2023-02-18T00:50:02.492Z,99023.66
2023-02-18T00:52:48.092Z,99018.13
2023-02-18T00:55:40.437Z,99031.22
2023-02-18T00:58:26.369Z,99028.44
2023-02-18T01:01:12.301Z,99028.44
2023-02-18T01:03:59.404Z,99025.22
2023-02-18T01:06:44.807Z,99022.44
2023-02-18T01:09:30.038Z,99026.44
2023-02-18T01:12:16.081Z,99031.22
2023-02-18T01:15:01.475Z,99029.22
2023-02-18T01:17:46.664Z,99037.53
2023-02-18T01:20:31.790Z,99033.97
2023-02-18T01:23:17.638Z,99038.75
2023-02-18T01:26:03.171Z,99039.53
2023-02-18T01:28:51.415Z,99032.41
2023-02-18T01:31:36.653Z,99038.75
2023-02-18T01:34:21.841Z,99032.84
2023-02-18T01:37:09.053Z,99032.41
2023-02-18T01:39:54.406Z,99030.06
2023-02-18T01:42:40.195Z,99026.94
2023-02-18T01:45:42.721Z,99035.63
2023-02-18T01:48:39.674Z,99029.69
2023-02-18T01:51:30.200Z,99025.34
2023-02-18T01:54:29.102Z,99026.94
2023-02-18T01:57:18.438Z,99027.28
2023-02-18T02:00:22.003Z,99020.56
2023-02-18T02:03:07.276Z,99021.38
2023-02-18T02:05:52.517Z,99020.56
2023-02-18T02:08:37.965Z,99019.38
2023-02-18T02:12:01.000Z,99016.59
2023-02-18T02:14:46.533Z,99025.72
2023-02-18T02:17:45.998Z,99032.84
2023-02-18T02:20:50.123Z,99034.03
2023-02-18T02:24:02.441Z,99031.66
2023-02-18T02:26:54.526Z,99024.16
2023-02-18T02:29:48.927Z,99026.47
2023-02-18T02:33:13.999Z,99020.16
2023-02-18T02:36:08.975Z,99026.47
2023-02-18T02:39:02.185Z,99016.59
2023-02-18T02:42:32.595Z,99032.47
2023-02-18T02:45:47.303Z,99028.88
2023-02-18T02:48:47.281Z,99025.34
2023-02-18T02:51:48.049Z,99027.34
2023-02-18T02:54:34.011Z,99042.75
2023-02-18T02:57:19.231Z,99035.66
2023-02-18T03:00:32.427Z,99037.66
2023-02-18T03:03:43.417Z,99036.44
2023-02-18T03:07:08.822Z,99037.22
2023-02-18T03:10:15.569Z,99030.88
2023-02-18T03:13:18.869Z,99025.34
2023-02-18T03:16:28.801Z,99025.34
2023-02-18T03:19:22.813Z,99035.66
2023-02-18T03:22:32.979Z,99038.44
2023-02-18T03:25:21.740Z,99027.34
2023-02-18T03:28:12.339Z,99025.34
2023-02-18T03:31:07.335Z,99028.13
2023-02-18T03:33:59.050Z,99026.94
2023-02-18T03:36:45.590Z,99024.94
2023-02-18T03:39:35.723Z,99020.56
2023-02-18T03:42:29.842Z,99019.78
2023-02-18T03:45:15.339Z,99019.03
2023-02-18T03:48:00.806Z,99019.78
2023-02-18T03:50:45.959Z,99009.91
2023-02-18T03:53:31.319Z,99016.25
2023-02-18T03:56:17.307Z,99009.16
2023-02-18T03:59:03.583Z,99014.69
2023-02-18T04:01:49.264Z,99014.25
2023-02-18T04:04:34.513Z,99022.56
2023-02-18T04:07:19.870Z,99025.34
2023-02-18T04:10:06.741Z,99035.25
2023-02-18T04:12:52.181Z,99029.34
2023-02-18T04:15:37.562Z,99021.38
2023-02-18T04:18:23.199Z,99030.13
2023-02-18T04:21:08.807Z,99026.94
2023-02-18T04:23:54.066Z,99036.44
2023-02-18T04:26:39.214Z,99028.88
2023-02-18T04:29:25.171Z,99030.47
2023-02-18T04:32:10.390Z,99027.69
2023-02-18T04:34:55.649Z,99028.47
2023-02-18T04:37:40.907Z,99026.47
2023-02-18T04:40:29.794Z,99027.28
2023-02-18T04:43:15.394Z,99010.66
2023-02-18T04:46:00.783Z,98994.00
2023-02-18T04:48:46.219Z,99015.03
2023-02-18T04:51:31.752Z,99012.63
2023-02-18T04:54:17.327Z,99003.16
2023-02-18T04:57:02.859Z,99013.44
2023-02-18T04:59:48.038Z,99001.16
2023-02-18T05:02:33.675Z,99004.75
2023-02-18T05:05:19.401Z,99007.94
2023-02-18T05:08:04.783Z,99016.59
2023-02-18T05:10:50.432Z,99016.19
2023-02-18T05:13:36.197Z,99026.84
2023-02-18T05:16:21.636Z,99014.19
2023-02-18T05:19:06.990Z,99011.78
2023-02-18T05:21:52.312Z,99009.44
2023-02-18T05:24:37.797Z,98997.47
2023-02-18T05:27:23.179Z,99001.47
2023-02-18T05:30:09.176Z,98982.44
2023-02-18T05:32:54.963Z,98982.44
2023-02-18T05:35:40.458Z,98985.19
2023-02-18T05:38:26.191Z,98980.44
2023-02-18T05:41:12.363Z,98980.84
2023-02-18T05:44:16.016Z,98974.09
2023-02-18T05:47:05.276Z,98975.66
2023-02-18T05:49:52.151Z,98970.97
2023-02-18T05:52:37.279Z,98957.97
2023-02-18T05:55:24.407Z,98956.75
2023-02-18T05:58:10.149Z,98955.53
2023-02-18T06:00:55.550Z,98953.97
2023-02-18T06:03:41.052Z,98959.50
2023-02-18T06:06:26.589Z,98961.09
2023-02-18T06:09:12.167Z,98960.66
2023-02-18T06:11:57.933Z,98957.47
2023-02-18T06:14:43.637Z,98960.25
2023-02-18T06:44:33.002Z,98946.88
2023-02-18T06:47:18.221Z,98941.72
2023-02-18T06:50:04.130Z,98937.75
2023-02-18T06:52:49.365Z,98927.81
2023-02-18T06:55:34.682Z,98929.72
2023-02-18T07:06:26.992Z,98932.09
2023-02-18T07:09:12.225Z,98929.69
2023-02-18T07:11:57.475Z,98928.00
2023-02-18T07:14:42.870Z,98928.66
2023-02-18T07:17:28.266Z,98927.38
2023-02-18T07:20:13.670Z,98922.91
2023-02-18T07:22:59.122Z,98912.09
2023-02-18T07:25:44.416Z,98909.59
2023-02-18T07:28:29.782Z,98900.41
2023-02-18T07:31:15.198Z,98893.22
2023-02-18T07:34:00.780Z,98904.25
2023-02-18T07:36:46.375Z,98897.47
2023-02-18T07:39:31.600Z,98897.84
2023-02-18T07:42:16.646Z,98882.72
2023-02-18T07:45:03.732Z,98885.88
2023-02-18T07:47:49.472Z,98875.47
2023-02-18T07:50:38.240Z,98878.59
2023-02-18T07:53:23.715Z,98869.84
2023-02-18T07:56:09.279Z,98865.84
2023-02-18T07:58:55.176Z,98868.56
2023-02-18T08:01:42.564Z,98869.75
2023-02-18T08:04:29.332Z,98859.44
2023-02-18T08:07:16.669Z,98857.44
2023-02-18T08:10:02.231Z,98852.25
2023-02-18T08:12:51.938Z,98853.44
2023-02-18T08:15:39.779Z,98847.03
2023-02-18T08:18:26.696Z,98835.06
2023-02-18T08:21:14.033Z,98831.03
2023-02-18T08:24:00.187Z,98830.19
2023-02-18T08:26:59.358Z,98819.09
2023-02-18T08:30:04.493Z,98818.56
2023-02-18T08:32:52.907Z,98813.78
2023-02-18T08:35:38.589Z,98801.03
2023-02-18T08:38:24.997Z,98795.81
2023-02-18T08:41:11.097Z,98789.06
2023-02-18T08:43:56.519Z,98782.28
2023-02-18T08:46:42.271Z,98778.28
2023-02-18T08:49:27.364Z,98777.06
2023-02-18T08:52:13.140Z,98773.94
2023-02-18T08:54:58.412Z,98775.16
2023-02-18T08:57:43.642Z,98773.16
2023-02-18T09:00:29.024Z,98770.81
2023-02-18T09:03:15.259Z,98758.16
2023-02-18T09:06:01.496Z,98755.03
2023-02-18T09:08:46.789Z,98747.88
2023-02-18T09:11:32.714Z,98749.88
2023-02-18T09:14:18.193Z,98740.69
2023-02-18T09:17:03.363Z,98733.13
2023-02-18T09:19:49.061Z,98731.56
2023-02-18T09:22:34.565Z,98729.94
2023-02-18T09:25:20.146Z,98734.34
2023-02-18T09:28:06.192Z,98719.25
2023-02-18T09:30:52.106Z,98721.91
2023-02-18T09:33:45.822Z,98728.63
2023-02-18T09:36:32.936Z,98711.97
2023-02-18T09:39:18.145Z,98710.72
2023-02-18T09:42:12.614Z,98702.75
2023-02-18T09:45:02.681Z,98690.41
2023-02-18T09:47:49.564Z,98704.63
2023-02-18T09:50:35.300Z,98699.06
2023-02-18T09:53:23.197Z,98690.31
2023-02-18T09:56:12.151Z,98692.66
2023-02-18T09:58:59.686Z,98686.22
2023-02-18T10:01:48.838Z,98693.00
2023-02-18T10:04:45.894Z,98683.00
2023-02-18T10:07:33.751Z,98679.13
2023-02-18T10:10:23.210Z,98678.31
2023-02-18T10:13:18.172Z,98679.53
2023-02-18T10:16:04.789Z,98683.78
2023-02-18T10:18:55.442Z,98674.25
2023-02-18T10:21:41.543Z,98664.72
2023-02-18T10:24:26.860Z,98653.16
2023-02-18T10:27:20.856Z,98655.94
2023-02-18T10:30:09.404Z,98648.03
2023-02-18T10:33:15.806Z,98639.69
2023-02-18T10:36:15.258Z,98642.09
2023-02-18T10:39:09.764Z,98635.00
2023-02-18T10:42:19.229Z,98636.97
2023-02-18T10:46:01.963Z,98629.53
2023-02-18T10:48:59.580Z,98606.19
2023-02-18T10:51:52.637Z,98614.16
2023-02-18T10:54:59.463Z,98595.16
2023-02-18T10:57:51.632Z,98583.69
2023-02-18T11:00:40.317Z,98589.72
2023-02-18T11:03:38.301Z,98572.69
2023-02-18T11:06:43.195Z,98565.22
2023-02-18T11:09:40.911Z,98553.00
2023-02-18T11:12:39.468Z,98542.31
2023-02-18T11:15:26.724Z,98550.78
2023-02-18T11:18:30.342Z,98524.31
2023-02-18T11:21:34.465Z,98517.19
2023-02-18T11:24:20.610Z,98513.75
2023-02-18T11:27:20.676Z,98511.84
2023-02-18T11:30:16.065Z,98521.84
2023-02-18T11:33:09.084Z,98522.25
2023-02-18T11:35:57.052Z,98514.03
2023-02-18T11:38:50.254Z,98516.91
2023-02-18T11:41:42.883Z,98510.25
2023-02-18T11:44:40.321Z,98497.25
2023-02-18T11:47:33.436Z,98501.69
2023-02-18T11:50:22.610Z,98497.75
2023-02-18T11:53:28.958Z,98488.31
2023-02-18T11:56:20.276Z,98500.66
2023-02-18T11:59:07.184Z,98500.31
2023-02-18T12:02:10.916Z,98496.41
2023-02-18T12:05:00.041Z,98484.19
2023-02-18T12:07:58.396Z,98479.84
2023-02-18T12:10:57.046Z,98477.97
2023-02-18T12:14:00.514Z,98481.94
2023-02-18T12:16:46.543Z,98474.06
2023-02-18T12:19:36.352Z,98478.03
2023-02-18T12:23:06.311Z,98481.25
2023-02-18T12:26:10.085Z,98474.91
2023-02-18T12:29:01.843Z,98478.13
2023-02-18T12:32:24.783Z,98468.22
2023-02-18T12:35:45.264Z,98464.69
2023-02-18T12:39:03.859Z,98495.63
2023-02-18T12:42:24.578Z,98483.00
2023-02-18T12:45:47.494Z,98504.84
2023-02-18T12:48:32.991Z,98488.63
2023-02-18T12:51:28.249Z,98486.28
2023-02-18T12:54:15.238Z,98500.94
2023-02-18T12:57:09.143Z,98493.81
2023-02-18T13:00:23.392Z,98474.84
2023-02-18T13:03:36.559Z,98487.94
2023-02-18T13:06:22.958Z,98485.16
2023-02-18T13:09:26.700Z,98479.94
2023-02-18T13:12:19.740Z,98477.09
2023-02-18T13:15:31.280Z,98467.88
2023-02-18T13:18:34.507Z,98453.66
2023-02-18T13:21:19.815Z,98445.69
2023-02-18T13:24:11.170Z,98442.47
2023-02-18T13:27:06.361Z,98452.28
2023-02-18T13:30:19.399Z,98462.97
2023-02-18T13:33:36.321Z,98468.41
2023-02-18T13:36:33.866Z,98467.97
2023-02-18T13:39:22.846Z,98459.66
2023-02-18T13:42:31.526Z,98483.41
2023-02-18T13:45:27.472Z,98462.75
2023-02-18T13:48:27.307Z,98452.44
2023-02-18T13:51:16.376Z,98476.19
2023-02-18T13:54:09.838Z,98472.22
2023-02-18T13:57:05.270Z,98472.97
2023-02-18T14:00:22.202Z,98474.56
2023-02-18T14:03:33.694Z,98485.19
2023-02-18T14:06:26.038Z,98476.53
2023-02-18T14:09:14.837Z,98476.88
2023-02-18T14:12:37.576Z,98480.88
2023-02-18T14:15:23.157Z,98472.97
2023-02-18T14:18:14.969Z,98469.09
2023-02-18T14:21:12.789Z,98472.75
2023-02-18T14:24:01.720Z,98485.41
2023-02-18T14:26:49.591Z,98488.19
2023-02-18T14:29:35.197Z,98482.28
2023-02-18T14:32:21.618Z,98481.16
2023-02-18T14:35:29.313Z,98469.72
2023-02-18T14:38:49.834Z,98472.16
2023-02-18T14:41:56.621Z,98487.66
2023-02-18T14:44:42.496Z,98498.41
2023-02-18T14:47:46.623Z,98496.06
2023-02-18T14:50:35.385Z,98495.75
2023-02-18T14:53:24.538Z,98494.16
2023-02-18T14:56:14.221Z,98498.94
2023-02-18T14:59:02.834Z,98512.47
2023-02-18T15:01:48.435Z,98506.16
2023-02-18T15:04:33.985Z,98522.03
2023-02-18T15:07:21.423Z,98530.00
2023-02-18T15:10:14.055Z,98525.66
2023-02-18T15:13:02.287Z,98522.44
2023-02-18T15:15:52.268Z,98525.66
2023-02-18T15:18:44.679Z,98521.22
2023-02-18T15:21:52.124Z,98522.34
2023-02-18T15:24:38.550Z,98519.50
2023-02-18T15:27:32.868Z,98523.38
2023-02-18T15:30:30.927Z,98535.22
2023-02-18T15:33:18.134Z,98528.00
2023-02-18T15:36:06.814Z,98526.69
2023-02-18T15:38:53.223Z,98542.50
2023-02-18T15:41:39.638Z,98538.81
2023-02-18T15:44:32.551Z,98543.50
2023-02-18T15:47:18.927Z,98547.38
2023-02-18T15:50:05.338Z,98533.44
2023-02-18T15:52:53.864Z,98536.97
2023-02-18T15:55:46.069Z,98557.53
2023-02-18T15:58:32.888Z,98556.66
2023-02-18T16:01:29.983Z,98542.66
2023-02-18T16:04:15.926Z,98537.91
2023-02-18T16:07:16.398Z,98547.78
2023-02-18T16:11:03.054Z,98536.59
2023-02-18T16:13:48.780Z,98552.03
2023-02-18T16:16:36.864Z,98550.38
2023-02-18T16:19:24.962Z,98558.72
2023-02-18T16:22:33.617Z,98542.38
2023-02-18T16:25:22.185Z,98557.50
2023-02-18T16:28:12.345Z,98562.16
2023-02-18T16:30:57.919Z,98573.53
2023-02-18T16:33:44.079Z,98583.84
2023-02-18T16:36:30.023Z,98591.31
2023-02-18T16:39:15.240Z,98583.34
2023-02-18T16:42:00.956Z,98599.53
2023-02-18T16:44:48.102Z,98603.13
2023-02-18T16:47:34.641Z,98602.91
2023-02-18T16:50:21.673Z,98607.25
2023-02-18T16:53:07.036Z,98598.03
2023-02-18T16:55:52.364Z,98610.03
2023-02-18T16:58:37.651Z,98602.56
2023-02-18T17:01:26.826Z,98604.22
2023-02-18T17:04:17.378Z,98605.00
2023-02-18T17:07:03.735Z,98604.66
2023-02-18T17:09:49.465Z,98602.44
2023-02-18T17:12:34.678Z,98622.72
2023-02-18T17:15:31.011Z,98622.06
2023-02-18T17:18:16.788Z,98626.94
2023-02-18T17:21:03.306Z,98629.00
2023-02-18T17:23:49.417Z,98627.13
2023-02-18T17:26:34.827Z,98635.88
2023-02-18T17:29:20.323Z,98633.19
2023-02-18T17:32:07.714Z,98635.25
2023-02-18T17:34:53.366Z,98639.69
2023-02-18T17:37:38.662Z,98642.59
2023-02-18T17:40:26.526Z,98650.56
2023-02-18T17:43:17.002Z,98645.09
2023-02-18T17:46:02.285Z,98649.50
2023-02-18T17:48:47.668Z,98653.16
2023-02-18T17:51:34.958Z,98661.91
2023-02-18T17:54:22.811Z,98669.13
2023-02-18T17:57:08.396Z,98663.22
2023-02-18T17:59:53.856Z,98668.03
2023-02-18T18:02:38.953Z,98675.59
2023-02-18T18:05:26.688Z,98667.69
2023-02-18T18:08:12.530Z,98686.75
2023-02-18T18:11:01.589Z,98683.63
2023-02-18T18:14:46.901Z,98677.72
2023-02-18T18:17:34.116Z,98680.19
2023-02-18T18:20:20.558Z,98691.72
2023-02-18T18:23:07.429Z,98700.47
2023-02-18T18:26:00.028Z,98702.88
2023-02-18T18:28:45.756Z,98711.66
2023-02-18T18:31:32.359Z,98713.63
2023-02-18T18:34:18.013Z,98708.94
2023-02-18T18:37:03.478Z,98706.16
2023-02-18T18:39:48.826Z,98708.59
2023-02-18T18:42:34.126Z,98718.13
2023-02-18T18:45:31.492Z,98721.34
2023-02-18T18:48:17.995Z,98713.44
2023-02-18T18:51:04.012Z,98725.75
2023-02-18T18:53:49.410Z,98707.53
2023-02-18T18:56:34.860Z,98714.31
2023-02-18T18:59:20.116Z,98712.72
2023-02-18T19:02:07.058Z,98713.16
2023-02-18T19:04:52.722Z,98715.13
2023-02-18T19:07:37.895Z,98721.91
2023-02-18T19:10:23.408Z,98723.03
2023-02-18T19:13:13.425Z,98713.94
2023-02-18T19:16:18.079Z,98740.47
2023-02-18T19:19:03.397Z,98728.59
2023-02-18T19:21:49.001Z,98729.81
2023-02-18T19:24:34.597Z,98734.13
2023-02-18T19:27:20.263Z,98734.91
2023-02-18T19:30:06.869Z,98741.25
2023-02-18T19:32:56.147Z,98737.69
2023-02-18T19:35:42.825Z,98733.38
2023-02-18T19:38:28.144Z,98739.69
2023-02-18T19:41:16.844Z,98741.25
2023-02-18T19:44:02.093Z,98754.69
2023-02-18T19:46:47.711Z,98752.38
2023-02-18T19:49:33.449Z,98750.38
2023-02-18T19:52:20.840Z,98749.13
2023-02-18T19:55:07.883Z,98753.91
2023-02-18T19:57:53.290Z,98749.94
2023-02-18T20:00:40.539Z,98761.47
2023-02-18T20:03:26.191Z,98758.69
2023-02-18T20:06:16.952Z,98764.22
2023-02-18T20:09:02.632Z,98754.34
2023-02-18T20:11:48.475Z,98772.56
2023-02-18T20:14:33.973Z,98765.44
2023-02-18T20:17:19.783Z,98761.88
2023-02-18T20:20:06.595Z,98759.47
2023-02-18T20:22:51.781Z,98764.66
2023-02-18T20:25:39.199Z,98770.97
2023-02-18T20:28:24.517Z,98767.84
2023-02-18T20:31:12.743Z,98772.19
2023-02-18T20:33:58.493Z,98774.56
2023-02-18T20:36:45.545Z,98778.09
2023-02-18T20:39:31.035Z,98774.56
2023-02-18T20:42:17.144Z,98779.31
2023-02-18T20:45:06.105Z,98790.41
2023-02-18T20:47:51.854Z,98774.56
2023-02-18T20:50:37.046Z,98781.28
2023-02-18T20:53:22.492Z,98777.75
2023-02-18T20:56:08.430Z,98782.53
2023-02-18T20:58:53.784Z,98773.34
2023-02-18T21:01:41.104Z,98772.19
2023-02-18T21:04:27.584Z,98779.75
2023-02-18T21:07:13.020Z,98764.66
2023-02-18T21:09:58.213Z,98769.44
2023-02-18T21:12:43.721Z,98772.19
2023-02-18T21:15:28.798Z,98774.19
2023-02-18T21:18:15.044Z,98780.94
2023-02-18T21:21:06.366Z,98774.97
2023-02-18T21:23:52.439Z,98772.63
2023-02-18T21:26:38.722Z,98769.06
2023-02-18T21:29:24.922Z,98769.06
2023-02-18T21:32:10.349Z,98761.97
2023-02-18T21:34:55.753Z,98767.53
2023-02-18T21:37:41.085Z,98763.16
2023-02-18T21:40:26.596Z,98764.38
2023-02-18T21:43:12.667Z,98764.38
2023-02-18T21:46:07.136Z,98753.66
2023-02-18T21:49:12.411Z,98761.09
2023-02-18T21:51:58.051Z,98764.22
2023-02-18T21:54:44.858Z,98758.59
2023-02-18T21:57:30.383Z,98750.97
2023-02-18T22:00:20.964Z,98751.69
2023-02-18T22:03:06.400Z,98749.19
2023-02-18T22:05:51.884Z,98751.88
2023-02-18T22:08:36.961Z,98754.59
2023-02-18T22:11:22.129Z,98761.28
2023-02-18T22:14:08.572Z,98762.00
2023-02-18T22:16:53.885Z,98762.72
2023-02-18T22:19:39.737Z,98767.75
2023-02-18T22:22:25.274Z,98764.44
2023-02-18T22:25:10.518Z,98779.03
2023-02-18T22:27:55.864Z,98788.50
2023-02-18T22:30:41.146Z,98762.97
2023-02-18T22:33:27.353Z,98765.34
2023-02-18T22:36:13.509Z,98768.03
2023-02-18T22:39:02.902Z,98765.16
2023-02-18T22:41:49.132Z,98774.19
2023-02-18T22:44:34.503Z,98758.66
2023-02-18T22:47:19.693Z,98770.88
2023-02-18T22:50:05.280Z,98764.13
2023-02-18T22:52:50.828Z,98775.16
2023-02-18T22:55:35.949Z,98770.81
2023-02-18T22:58:21.152Z,98770.75
2023-02-18T23:01:07.115Z,98771.94
2023-02-18T23:03:53.537Z,98772.81
2023-02-18T23:06:40.654Z,98757.81
2023-02-18T23:09:26.464Z,98774.47
2023-02-18T23:12:11.995Z,98777.75
2023-02-18T23:14:57.328Z,98782.19
2023-02-18T23:17:42.746Z,98782.63
2023-02-18T23:20:47.647Z,98783.47
2023-02-18T23:23:32.852Z,98780.34
2023-02-18T23:26:22.741Z,98770.53
2023-02-18T23:29:08.593Z,98776.53
2023-02-18T23:31:54.206Z,98769.06
2023-02-18T23:34:39.583Z,98790.13
2023-02-18T23:37:44.782Z,98773.91
2023-02-18T23:40:30.561Z,98772.78
2023-02-18T23:43:15.900Z,98772.44
2023-02-18T23:46:01.161Z,98760.97
2023-02-18T23:48:46.384Z,98766.63
2023-02-18T23:51:32.123Z,98764.25
2023-02-18T23:54:18.302Z,98757.16
2023-02-18T23:57:03.846Z,98747.69
2023-02-18T23:59:49.172Z,98736.22
